createdAt,value
2019-03-26T09:09:05.701Z,85
2019-03-26T09:09:40.674Z,90
2019-03-26T09:10:12.656Z,90
2019-03-26T09:10:53.624Z,90
2019-03-26T09:11:25.603Z,85
2019-03-26T09:11:57.577Z,80
2019-03-26T09:12:29.548Z,75
2019-03-26T09:13:01.539Z,75
2019-03-26T09:13:33.517Z,80
2019-03-26T09:14:05.488Z,80
2019-03-26T09:14:38.284Z,80
2019-03-26T09:15:10.279Z,80
2019-03-26T09:15:42.261Z,80
2019-03-26T09:16:14.238Z,85
2019-03-26T09:16:46.230Z,85
2019-03-26T09:17:21.433Z,90
2019-03-26T09:17:53.420Z,85
2019-03-26T09:18:25.415Z,85
2019-03-26T09:18:57.451Z,85
2019-03-26T09:19:29.424Z,80
2019-03-26T09:20:01.545Z,80
2019-03-26T09:20:33.512Z,85
2019-03-26T09:21:05.504Z,85
2019-03-26T09:21:37.495Z,85
2019-03-26T09:22:09.473Z,80
2019-03-26T09:22:41.463Z,80
2019-03-26T09:23:14.142Z,80
2019-03-26T09:23:46.145Z,80
2019-03-26T09:24:18.135Z,85
2019-03-26T09:24:50.122Z,90
2019-03-26T09:25:22.110Z,90
2019-03-26T09:25:54.078Z,95
2019-03-26T09:26:26.066Z,90
2019-03-26T09:26:58.064Z,85
2019-03-26T09:27:30.049Z,85
2019-03-26T09:28:02.085Z,85
2019-03-26T09:28:34.072Z,85
2019-03-26T09:29:06.055Z,80
2019-03-26T09:29:38.047Z,80
2019-03-26T09:30:10.019Z,75
2019-03-26T09:30:41.984Z,70
2019-03-26T09:31:13.981Z,70
2019-03-26T09:31:45.964Z,65
2019-03-26T09:32:17.955Z,60
2019-03-26T09:32:49.937Z,55
2019-03-26T09:33:21.924Z,50
2019-03-26T09:33:53.924Z,50
2019-03-26T09:34:25.999Z,55
2019-03-26T09:34:57.985Z,60
2019-03-26T09:35:29.962Z,70
2019-03-26T09:36:01.946Z,70
2019-03-26T09:36:33.985Z,70
2019-03-26T09:37:05.985Z,70
2019-03-26T09:37:37.961Z,75
2019-03-26T09:38:09.963Z,85
2019-03-26T09:38:41.955Z,85
2019-03-26T09:39:13.945Z,90
2019-03-26T09:39:45.950Z,95
2019-03-26T09:40:17.915Z,90
2019-03-26T09:40:49.915Z,85
2019-03-26T09:41:21.977Z,85
2019-03-26T09:41:53.955Z,95
2019-03-26T09:42:25.929Z,100
2019-03-26T09:42:57.915Z,100
2019-03-26T09:43:29.917Z,95
2019-03-26T09:44:01.908Z,95
2019-03-26T09:44:33.881Z,90
2019-03-26T09:45:05.872Z,90
2019-03-26T09:45:37.872Z,100
2019-03-26T09:46:09.875Z,105
2019-03-26T09:46:41.871Z,115
2019-03-26T09:47:18.290Z,120
2019-03-26T09:47:50.293Z,120
2019-03-26T09:48:22.276Z,110
2019-03-26T09:48:54.271Z,105
2019-03-26T09:49:26.425Z,100
2019-03-26T09:49:58.487Z,90
2019-03-26T09:50:30.484Z,85
2019-03-26T09:51:02.842Z,95
2019-03-26T09:51:34.856Z,110
2019-03-26T09:52:07.056Z,115
2019-03-26T09:52:39.045Z,115
2019-03-26T09:53:11.118Z,105
2019-03-26T09:53:43.107Z,100
2019-03-26T09:54:15.103Z,95
2019-03-26T09:54:47.097Z,85
2019-03-26T09:55:19.127Z,75
2019-03-26T09:55:51.855Z,80
2019-03-26T09:56:33.963Z,80
2019-03-26T09:57:05.961Z,85
2019-03-26T09:57:37.964Z,85
2019-03-26T09:58:09.986Z,85
2019-03-26T09:58:42.027Z,80
2019-03-26T09:59:14.037Z,80
2019-03-26T09:59:46.026Z,80
2019-03-26T10:00:18.033Z,85
2019-03-26T10:00:51.119Z,95
2019-03-26T10:01:23.253Z,100
2019-03-26T10:01:55.235Z,90
2019-03-26T10:02:27.284Z,80
2019-03-26T10:02:59.272Z,75
2019-03-26T10:03:32.024Z,75
2019-03-26T10:04:04.085Z,75
2019-03-26T10:04:36.146Z,75
2019-03-26T10:05:08.285Z,75
2019-03-26T10:05:40.283Z,70
2019-03-26T10:06:25.419Z,75
2019-03-26T10:06:57.402Z,80
2019-03-26T10:07:29.416Z,80
2019-03-26T10:08:01.401Z,75
2019-03-26T10:08:33.397Z,70
2019-03-26T10:09:05.376Z,80
2019-03-26T10:09:37.335Z,95
2019-03-26T10:10:09.316Z,100
2019-03-26T10:10:41.351Z,105
2019-03-26T10:11:13.347Z,110
2019-03-26T10:11:45.450Z,115
2019-03-26T10:12:17.463Z,115
2019-03-26T10:12:49.456Z,120
2019-03-26T10:13:21.468Z,120
2019-03-26T10:13:53.610Z,120
2019-03-26T10:14:25.584Z,120
2019-03-26T10:14:57.583Z,115
2019-03-26T10:15:29.595Z,110
2019-03-26T10:16:01.586Z,105
2019-03-26T10:16:33.630Z,100
2019-03-26T10:17:05.708Z,105
2019-03-26T10:17:37.742Z,100
2019-03-26T10:18:09.886Z,90
2019-03-26T10:18:41.914Z,80
2019-03-26T10:19:17.393Z,75
2019-03-26T10:19:49.485Z,80
2019-03-26T10:20:21.496Z,85
2019-03-26T10:20:53.561Z,85
2019-03-26T10:21:25.547Z,85
2019-03-26T10:21:57.523Z,90
2019-03-26T10:22:29.541Z,90
2019-03-26T10:23:01.586Z,85
2019-03-26T10:23:33.557Z,80
2019-03-26T10:24:05.571Z,80
2019-03-26T10:24:37.596Z,80
2019-03-26T10:25:12.854Z,75
2019-03-26T10:25:44.834Z,70
2019-03-26T10:26:16.837Z,65
2019-03-26T10:26:48.907Z,65
2019-03-26T10:27:20.884Z,70
2019-03-26T10:27:52.894Z,70
2019-03-26T10:28:24.870Z,70
2019-03-26T10:28:56.911Z,65
2019-03-26T10:29:32.606Z,65
2019-03-26T10:30:07.397Z,70
2019-03-26T10:30:39.457Z,70
2019-03-26T10:31:11.449Z,70
2019-03-26T10:31:43.440Z,75
2019-03-26T10:32:15.434Z,75
2019-03-26T10:32:47.517Z,75
2019-03-26T10:33:19.505Z,80
2019-03-26T10:33:51.507Z,85
2019-03-26T10:34:23.496Z,100
2019-03-26T10:34:55.490Z,105
2019-03-26T10:35:27.481Z,100
2019-03-26T10:35:59.492Z,95
2019-03-26T10:36:31.442Z,95
2019-03-26T10:37:03.454Z,95
2019-03-26T10:37:35.443Z,90
2019-03-26T10:38:07.446Z,90
2019-03-26T10:38:39.427Z,90
2019-03-26T10:39:11.431Z,95
2019-03-26T10:39:43.389Z,100
2019-03-26T10:40:15.386Z,95
2019-03-26T10:40:47.390Z,100
2019-03-26T10:41:20.480Z,105
2019-03-26T10:41:52.484Z,105
2019-03-26T10:42:24.494Z,105
2019-03-26T10:42:56.461Z,90
2019-03-26T10:43:28.470Z,85
2019-03-26T10:44:00.534Z,80
2019-03-26T10:44:32.532Z,85
2019-03-26T10:45:04.524Z,85
2019-03-26T10:45:36.506Z,80
2019-03-26T10:46:08.498Z,85
2019-03-26T10:46:40.481Z,95
2019-03-26T10:47:12.449Z,90
2019-03-26T10:47:44.430Z,80
2019-03-26T10:48:16.406Z,85
2019-03-26T10:48:48.409Z,95
2019-03-26T10:49:20.400Z,95
2019-03-26T10:49:52.442Z,95
2019-03-26T10:50:24.421Z,100
2019-03-26T10:50:56.395Z,110
2019-03-26T10:51:28.361Z,110
2019-03-26T10:52:00.334Z,115
2019-03-26T10:52:35.957Z,120
2019-03-26T10:53:07.983Z,125
2019-03-26T10:53:40.006Z,125
2019-03-26T10:54:12.018Z,120
2019-03-26T10:54:43.999Z,125
2019-03-26T10:55:16.005Z,120
2019-03-26T10:55:47.995Z,120
2019-03-26T10:56:20.036Z,110
2019-03-26T10:56:52.066Z,105
2019-03-26T10:57:24.066Z,100
2019-03-26T10:57:56.064Z,105
2019-03-26T10:58:28.051Z,115
2019-03-26T10:59:00.045Z,120
2019-03-26T10:59:32.041Z,130
2019-03-26T11:00:04.644Z,140
2019-03-26T11:00:36.637Z,140
2019-03-26T11:01:08.619Z,140
2019-03-26T11:01:40.631Z,135
2019-03-26T11:02:12.621Z,135
2019-03-26T11:02:44.619Z,130
2019-03-26T11:03:16.608Z,115
2019-03-26T11:03:48.575Z,115
2019-03-26T11:04:20.561Z,120
2019-03-26T11:04:52.636Z,120
2019-03-26T11:05:24.616Z,120
2019-03-26T11:05:57.209Z,120
2019-03-26T11:06:29.222Z,120
2019-03-26T11:07:01.289Z,120
2019-03-26T11:07:33.284Z,125
2019-03-26T11:08:05.352Z,135
2019-03-26T11:08:37.343Z,125
2019-03-26T11:09:28.431Z,100
2019-03-26T11:10:00.411Z,85
2019-03-26T11:10:32.401Z,80
2019-03-26T11:11:04.377Z,70
2019-03-26T11:11:36.390Z,65
2019-03-26T11:12:08.371Z,60
2019-03-26T11:12:40.470Z,55
2019-03-26T11:13:12.507Z,45
2019-03-26T11:13:44.510Z,40
2019-03-26T11:14:16.553Z,45
2019-03-26T11:14:48.554Z,45
2019-03-26T11:15:20.535Z,50
2019-03-26T11:15:52.586Z,50
2019-03-26T11:16:24.566Z,45
2019-03-26T11:16:56.573Z,45
2019-03-26T11:17:28.583Z,45
2019-03-26T11:18:00.599Z,45
2019-03-26T11:18:32.590Z,45
2019-03-26T11:19:04.620Z,45
2019-03-26T11:19:36.638Z,45
2019-03-26T11:20:08.677Z,50
2019-03-26T11:20:40.663Z,55
2019-03-26T11:21:12.651Z,45
2019-03-26T11:21:44.658Z,35
2019-03-26T11:22:16.662Z,35
2019-03-26T11:22:48.671Z,30
2019-03-26T11:23:20.695Z,30
2019-03-26T11:23:52.688Z,30
2019-03-26T11:24:25.553Z,30
2019-03-26T11:25:00.474Z,30
2019-03-26T11:25:33.596Z,30
2019-03-26T11:26:05.570Z,30
2019-03-26T11:26:40.002Z,35
2019-03-26T11:27:14.045Z,35
2019-03-26T11:27:46.016Z,30
2019-03-26T11:28:17.970Z,25
2019-03-26T11:28:49.996Z,20
2019-03-26T11:29:21.965Z,20
2019-03-26T11:29:53.951Z,20
2019-03-26T11:30:25.938Z,20
2019-03-26T11:30:57.908Z,20
2019-03-26T11:31:31.777Z,20
2019-03-26T11:32:03.777Z,25
2019-03-26T11:32:35.774Z,25
2019-03-26T11:33:07.733Z,20
2019-03-26T11:33:39.713Z,20
2019-03-26T11:34:11.703Z,20
2019-03-26T11:34:43.722Z,15
2019-03-26T11:35:15.766Z,15
2019-03-26T11:35:47.750Z,15
2019-03-26T11:36:19.733Z,15
2019-03-26T11:36:51.718Z,15
2019-03-26T11:37:23.716Z,20
2019-03-26T11:37:55.693Z,20
2019-03-26T11:38:27.681Z,25
2019-03-26T11:38:59.663Z,30
2019-03-26T11:39:34.743Z,35
2019-03-26T11:40:06.746Z,40
2019-03-26T11:40:38.901Z,40
2019-03-26T11:41:10.893Z,50
2019-03-26T11:41:42.886Z,80
2019-03-26T11:42:14.858Z,100
2019-03-26T11:42:46.842Z,105
2019-03-26T11:43:18.824Z,110
2019-03-26T11:43:50.797Z,135
2019-03-26T11:44:22.784Z,155
2019-03-26T11:44:54.764Z,170
2019-03-26T11:45:26.750Z,170
2019-03-26T11:45:58.740Z,170
2019-03-26T11:46:30.706Z,170
2019-03-26T11:47:02.677Z,165
2019-03-26T11:47:34.734Z,155
2019-03-26T11:48:07.496Z,150
2019-03-26T11:48:39.480Z,145
2019-03-26T11:49:11.830Z,145
2019-03-26T11:49:43.846Z,140
2019-03-26T11:50:15.853Z,140
2019-03-26T11:50:47.838Z,145
2019-03-26T11:51:19.795Z,145
2019-03-26T11:51:51.768Z,145
2019-03-26T11:52:23.781Z,140
2019-03-26T11:52:55.781Z,140
2019-03-26T11:53:27.755Z,140
2019-03-26T11:53:59.727Z,140
2019-03-26T11:54:31.735Z,140
2019-03-26T11:55:03.709Z,140
2019-03-26T11:55:35.699Z,145
2019-03-26T11:56:07.693Z,155
2019-03-26T11:56:39.677Z,165
2019-03-26T11:57:11.664Z,170
2019-03-26T11:57:43.662Z,165
2019-03-26T11:58:15.663Z,160
2019-03-26T11:58:47.642Z,145
2019-03-26T11:59:19.603Z,140
2019-03-26T11:59:51.571Z,130
2019-03-26T12:00:23.542Z,125
2019-03-26T12:00:55.522Z,115
2019-03-26T12:01:27.510Z,100
2019-03-26T12:01:59.482Z,95
2019-03-26T12:02:32.366Z,90
2019-03-26T12:03:04.397Z,90
2019-03-26T12:03:36.382Z,85
2019-03-26T12:04:08.489Z,85
2019-03-26T12:04:40.472Z,80
2019-03-26T12:05:12.463Z,80
2019-03-26T12:05:44.447Z,75
2019-03-26T12:06:16.469Z,70
2019-03-26T12:06:48.455Z,70
2019-03-26T12:07:20.425Z,70
2019-03-26T12:07:52.399Z,70
2019-03-26T12:08:24.412Z,75
2019-03-26T12:08:56.404Z,75
2019-03-26T12:09:28.378Z,75
2019-03-26T12:10:00.389Z,70
2019-03-26T12:10:32.401Z,75
2019-03-26T12:11:04.381Z,85
2019-03-26T12:11:36.367Z,90
2019-03-26T12:12:08.374Z,90
2019-03-26T12:12:40.341Z,85
2019-03-26T12:13:12.341Z,85
2019-03-26T12:13:44.330Z,85
2019-03-26T12:14:16.329Z,85
2019-03-26T12:14:48.319Z,80
2019-03-26T12:15:20.287Z,80
2019-03-26T12:15:52.335Z,80
2019-03-26T12:16:24.312Z,80
2019-03-26T12:16:56.294Z,80
2019-03-26T12:17:28.272Z,80
2019-03-26T12:18:00.262Z,75
2019-03-26T12:18:32.345Z,70
2019-03-26T12:19:04.383Z,65
2019-03-26T12:19:36.373Z,60
2019-03-26T12:20:08.348Z,60
2019-03-26T12:20:40.376Z,55
2019-03-26T12:21:12.377Z,55
2019-03-26T12:21:44.344Z,60
2019-03-26T12:22:16.337Z,65
2019-03-26T12:22:48.336Z,65
2019-03-26T12:23:20.319Z,60
2019-03-26T12:23:52.301Z,55
2019-03-26T12:24:24.258Z,55
2019-03-26T12:24:56.241Z,50
2019-03-26T12:25:28.230Z,50
2019-03-26T12:26:00.231Z,55
2019-03-26T12:26:32.199Z,60
2019-03-26T12:27:04.160Z,65
2019-03-26T12:27:38.335Z,65
2019-03-26T12:28:10.329Z,70
2019-03-26T12:28:42.319Z,70
2019-03-26T12:29:14.300Z,65
2019-03-26T12:29:46.296Z,60
2019-03-26T12:30:18.346Z,55
2019-03-26T12:30:50.334Z,65
2019-03-26T12:31:22.334Z,70
2019-03-26T12:31:54.320Z,70
2019-03-26T12:32:26.311Z,70
2019-03-26T12:32:58.292Z,70
2019-03-26T12:33:30.294Z,65
2019-03-26T12:34:02.293Z,60
2019-03-26T12:34:34.310Z,50
2019-03-26T12:35:06.287Z,50
2019-03-26T12:35:38.356Z,55
2019-03-26T12:36:10.363Z,55
2019-03-26T12:36:42.347Z,60
2019-03-26T12:37:14.332Z,65
2019-03-26T12:37:46.347Z,60
2019-03-26T12:38:18.340Z,55
2019-03-26T12:38:50.322Z,50
2019-03-26T12:39:22.312Z,50
2019-03-26T12:40:02.283Z,45
2019-03-26T12:40:34.291Z,40
2019-03-26T12:41:06.283Z,40
2019-03-26T12:41:41.029Z,40
2019-03-26T12:42:13.541Z,45
2019-03-26T12:42:45.532Z,50
2019-03-26T12:43:17.548Z,50
2019-03-26T12:43:49.532Z,45
2019-03-26T12:44:21.527Z,45
2019-03-26T12:44:53.528Z,45
2019-03-26T12:45:25.586Z,45
2019-03-26T12:45:57.618Z,55
2019-03-26T12:46:29.603Z,60
2019-03-26T12:47:01.598Z,75
2019-03-26T12:47:33.590Z,95
2019-03-26T12:48:05.579Z,100
2019-03-26T12:48:37.568Z,105
2019-03-26T12:49:09.532Z,110
2019-03-26T12:49:41.555Z,115
2019-03-26T12:50:13.556Z,120
2019-03-26T12:50:45.592Z,120
2019-03-26T12:51:17.569Z,115
2019-03-26T12:51:49.531Z,110
2019-03-26T12:52:21.531Z,100
2019-03-26T12:52:53.530Z,95
2019-03-26T12:53:25.587Z,80
2019-03-26T12:53:57.580Z,65
2019-03-26T12:54:29.572Z,50
2019-03-26T12:55:01.631Z,45
2019-03-26T12:55:33.728Z,40
2019-03-26T12:56:05.713Z,35
2019-03-26T12:56:37.689Z,35
2019-03-26T12:57:09.681Z,35
2019-03-26T12:57:41.685Z,35
2019-03-26T12:58:13.676Z,35
2019-03-26T12:58:45.650Z,40
2019-03-26T12:59:17.651Z,40
2019-03-26T12:59:49.663Z,40
2019-03-26T13:00:21.624Z,40
2019-03-26T13:00:53.603Z,40
2019-03-26T13:01:25.608Z,45
2019-03-26T13:01:57.580Z,45
2019-03-26T13:02:29.545Z,45
2019-03-26T13:03:01.521Z,45
2019-03-26T13:03:33.516Z,45
2019-03-26T13:04:18.007Z,50
2019-03-26T13:04:50.013Z,50
2019-03-26T13:05:24.881Z,55
2019-03-26T13:05:56.937Z,60
2019-03-26T13:06:28.942Z,60
2019-03-26T13:07:00.928Z,65
2019-03-26T13:07:32.923Z,70
2019-03-26T13:08:04.896Z,75
2019-03-26T13:08:36.852Z,80
2019-03-26T13:09:08.832Z,75
2019-03-26T13:09:43.569Z,70
2019-03-26T13:10:16.278Z,65
2019-03-26T13:10:55.588Z,65
2019-03-26T13:11:27.578Z,65
2019-03-26T13:11:59.541Z,70
2019-03-26T13:12:31.529Z,70
2019-03-26T13:13:03.500Z,65
2019-03-26T13:13:35.482Z,55
2019-03-26T13:14:07.486Z,50
2019-03-26T13:14:39.455Z,50
2019-03-26T13:15:11.454Z,45
2019-03-26T13:15:43.407Z,45
2019-03-26T13:16:15.400Z,40
2019-03-26T13:16:47.391Z,40
2019-03-26T13:17:19.384Z,40
2019-03-26T13:17:51.372Z,40
2019-03-26T13:18:23.377Z,40
2019-03-26T13:18:55.356Z,40
2019-03-26T13:19:27.360Z,40
2019-03-26T13:19:59.344Z,45
2019-03-26T13:20:31.316Z,45
2019-03-26T13:21:03.311Z,45
2019-03-26T13:21:38.693Z,45
2019-03-26T13:22:10.702Z,50
2019-03-26T13:22:42.720Z,50
2019-03-26T13:23:14.719Z,50
2019-03-26T13:23:46.763Z,50
2019-03-26T13:24:18.809Z,50
2019-03-26T13:24:50.835Z,50
2019-03-26T13:25:22.835Z,50
2019-03-26T13:25:54.882Z,45
2019-03-26T13:26:28.087Z,40
2019-03-26T13:27:00.115Z,35
2019-03-26T13:27:32.107Z,40
2019-03-26T13:28:04.119Z,45
2019-03-26T13:28:36.119Z,50
2019-03-26T13:29:08.113Z,50
2019-03-26T13:29:40.111Z,55
2019-03-26T13:30:12.341Z,55
2019-03-26T13:30:45.651Z,55
2019-03-26T13:31:18.464Z,55
2019-03-26T13:31:50.967Z,50
2019-03-26T13:32:23.107Z,50
2019-03-26T13:32:55.142Z,45
2019-03-26T13:33:27.177Z,45
2019-03-26T13:33:59.250Z,45
2019-03-26T13:34:31.260Z,50
2019-03-26T13:35:03.292Z,55
2019-03-26T13:35:35.295Z,60
2019-03-26T13:36:07.282Z,60
2019-03-26T13:36:40.046Z,55
2019-03-26T13:37:12.034Z,55
2019-03-26T13:37:44.055Z,55
2019-03-26T13:38:16.083Z,55
2019-03-26T13:38:48.091Z,60
2019-03-26T13:39:20.074Z,65
2019-03-26T13:39:52.053Z,65
2019-03-26T13:40:29.238Z,65
2019-03-26T13:41:01.222Z,65
2019-03-26T13:41:33.214Z,65
2019-03-26T13:42:05.226Z,70
2019-03-26T13:42:37.209Z,70
2019-03-26T13:43:09.223Z,70
2019-03-26T13:43:41.228Z,70
2019-03-26T13:44:13.215Z,70
2019-03-26T13:44:45.189Z,65
2019-03-26T13:45:17.220Z,65
2019-03-26T13:45:49.234Z,60
2019-03-26T13:46:21.243Z,60
2019-03-26T13:46:53.251Z,60
2019-03-26T13:47:25.257Z,60
2019-03-26T13:47:57.266Z,55
2019-03-26T13:48:29.276Z,55
2019-03-26T13:49:01.289Z,55
2019-03-26T13:49:33.279Z,55
2019-03-26T13:50:05.271Z,60
2019-03-26T13:50:37.248Z,65
2019-03-26T13:51:09.287Z,65
2019-03-26T13:51:41.312Z,70
2019-03-26T13:52:13.309Z,75
2019-03-26T13:52:45.295Z,75
2019-03-26T13:53:17.287Z,70
2019-03-26T13:53:49.280Z,70
2019-03-26T13:54:21.282Z,65
2019-03-26T13:54:53.273Z,60
2019-03-26T13:55:25.259Z,60
2019-03-26T13:55:57.261Z,55
2019-03-26T13:56:29.340Z,55
2019-03-26T13:57:01.331Z,50
2019-03-26T13:57:33.305Z,50
2019-03-26T13:58:05.275Z,50
2019-03-26T13:58:37.243Z,50
2019-03-26T13:59:09.229Z,45
2019-03-26T13:59:41.213Z,45
2019-03-26T14:00:13.201Z,45
2019-03-26T14:00:45.167Z,45
2019-03-26T14:01:17.237Z,45
2019-03-26T14:01:49.208Z,45
2019-03-26T14:02:21.181Z,45
2019-03-26T14:02:53.176Z,45
2019-03-26T14:03:25.178Z,50
2019-03-26T14:03:57.200Z,50
2019-03-26T14:04:29.201Z,50
2019-03-26T14:05:01.176Z,50
2019-03-26T14:05:33.168Z,55
2019-03-26T14:06:05.166Z,60
2019-03-26T14:06:37.164Z,65
2019-03-26T14:07:09.169Z,70
2019-03-26T14:07:41.181Z,70
2019-03-26T14:08:13.176Z,70
2019-03-26T14:08:45.182Z,70
2019-03-26T14:09:17.203Z,70
2019-03-26T14:09:49.289Z,70
2019-03-26T14:10:21.289Z,70
2019-03-26T14:10:53.290Z,65
2019-03-26T14:11:25.268Z,65
2019-03-26T14:11:59.347Z,65
2019-03-26T14:12:31.462Z,60
2019-03-26T14:13:03.484Z,60
2019-03-26T14:13:35.470Z,60
2019-03-26T14:14:07.456Z,60
2019-03-26T14:14:39.460Z,60
2019-03-26T14:15:11.467Z,60
2019-03-26T14:15:43.463Z,60
2019-03-26T14:16:15.446Z,60
2019-03-26T14:16:47.437Z,60
2019-03-26T14:17:19.444Z,55
2019-03-26T14:17:51.444Z,50
2019-03-26T14:18:23.473Z,50
2019-03-26T14:18:55.468Z,45
2019-03-26T14:19:27.453Z,40
2019-03-26T14:19:59.439Z,40
2019-03-26T14:20:31.428Z,35
2019-03-26T14:21:03.409Z,35
2019-03-26T14:21:35.382Z,35
2019-03-26T14:22:07.395Z,35
2019-03-26T14:22:39.344Z,35
2019-03-26T14:23:11.344Z,30
2019-03-26T14:23:43.423Z,30
2019-03-26T14:24:15.410Z,30
2019-03-26T14:24:47.428Z,25
2019-03-26T14:25:19.413Z,25
2019-03-26T14:25:51.426Z,30
2019-03-26T14:26:23.422Z,30
2019-03-26T14:26:55.401Z,30
2019-03-26T14:27:27.417Z,30
2019-03-26T14:27:59.401Z,30
2019-03-26T14:28:31.413Z,35
2019-03-26T14:29:03.412Z,35
2019-03-26T14:29:35.408Z,35
2019-03-26T14:30:07.393Z,35
2019-03-26T14:30:39.370Z,35
2019-03-26T14:31:11.381Z,35
2019-03-26T14:31:43.583Z,35
2019-03-26T14:32:15.680Z,35
2019-03-26T14:32:47.659Z,35
2019-03-26T14:33:19.754Z,35
2019-03-26T14:33:51.901Z,35
2019-03-26T14:34:23.989Z,35
2019-03-26T14:34:56.038Z,35
2019-03-26T14:35:28.017Z,30
2019-03-26T14:36:00.046Z,30
2019-03-26T14:36:32.153Z,30
2019-03-26T14:37:04.181Z,30
2019-03-26T14:37:50.127Z,30
2019-03-26T14:38:22.691Z,30
2019-03-26T14:38:54.697Z,30
2019-03-26T14:39:27.030Z,30
2019-03-26T14:39:59.328Z,30
2019-03-26T14:40:31.390Z,30
2019-03-26T14:41:03.413Z,30
2019-03-26T14:41:35.434Z,30
2019-03-26T14:42:07.425Z,30
2019-03-26T14:42:39.467Z,30
2019-03-26T14:43:11.466Z,35
2019-03-26T14:43:43.488Z,35
2019-03-26T14:44:15.484Z,35
2019-03-26T14:44:50.877Z,35
2019-03-26T14:45:22.868Z,35
2019-03-26T14:45:54.857Z,35
2019-03-26T14:46:26.829Z,35
2019-03-26T14:46:58.875Z,35
2019-03-26T14:47:30.870Z,35
2019-03-26T14:48:02.829Z,35
2019-03-26T14:48:34.998Z,35
2019-03-26T14:49:06.995Z,35
2019-03-26T14:49:38.959Z,35
2019-03-26T14:50:10.940Z,35
2019-03-26T14:50:42.979Z,35
2019-03-26T14:51:14.966Z,35
2019-03-26T14:51:46.959Z,35
2019-03-26T14:52:18.950Z,35
2019-03-26T14:52:50.938Z,35
2019-03-26T14:53:22.904Z,35
2019-03-26T14:53:54.891Z,35
2019-03-26T14:54:26.895Z,35
2019-03-26T14:54:58.904Z,40
2019-03-26T14:55:30.892Z,40
2019-03-26T14:56:02.881Z,40
2019-03-26T14:56:34.858Z,40
2019-03-26T14:57:06.820Z,40
2019-03-26T14:57:38.816Z,40
2019-03-26T14:58:10.817Z,40
2019-03-26T14:58:42.808Z,35
2019-03-26T14:59:14.863Z,35
2019-03-26T14:59:46.844Z,35
2019-03-26T15:00:18.825Z,30
2019-03-26T15:00:50.850Z,30
2019-03-26T15:01:22.835Z,30
2019-03-26T15:01:54.815Z,30
2019-03-26T15:02:26.784Z,35
2019-03-26T15:02:58.765Z,35
2019-03-26T15:03:30.752Z,40
2019-03-26T15:04:02.810Z,40
2019-03-26T15:04:34.845Z,40
2019-03-26T15:05:06.845Z,40
2019-03-26T15:05:38.826Z,40
2019-03-26T15:06:10.822Z,40
2019-03-26T15:06:42.802Z,45
2019-03-26T15:07:14.780Z,45
2019-03-26T15:07:46.772Z,45
2019-03-26T15:08:18.842Z,45
2019-03-26T15:08:50.856Z,50
2019-03-26T15:09:22.818Z,50
2019-03-26T15:09:54.808Z,50
2019-03-26T15:10:26.819Z,50
2019-03-26T15:11:09.872Z,55
2019-03-26T15:11:41.864Z,60
2019-03-26T15:12:13.839Z,70
2019-03-26T15:12:45.846Z,80
2019-03-26T15:13:17.834Z,85
2019-03-26T15:13:51.268Z,80
2019-03-26T15:14:23.259Z,70
2019-03-26T15:14:55.262Z,65
2019-03-26T15:15:27.249Z,65
2019-03-26T15:15:59.215Z,60
2019-03-26T15:16:31.216Z,50
2019-03-26T15:17:03.229Z,45
2019-03-26T15:17:35.203Z,40
2019-03-26T15:18:07.191Z,35
2019-03-26T15:18:39.201Z,35
2019-03-26T15:19:11.168Z,30
2019-03-26T15:19:43.156Z,25
2019-03-26T15:20:15.145Z,25
2019-03-26T15:20:47.163Z,25
2019-03-26T15:21:19.163Z,20
2019-03-26T15:21:51.187Z,20
2019-03-26T15:22:23.156Z,20
2019-03-26T15:22:58.736Z,20
2019-03-26T15:23:30.717Z,15
2019-03-26T15:24:02.701Z,15
2019-03-26T15:24:34.690Z,15
2019-03-26T15:25:06.694Z,15
2019-03-26T15:25:38.664Z,15
2019-03-26T15:26:10.638Z,10
2019-03-26T15:26:42.608Z,10
2019-03-26T15:27:14.595Z,10
2019-03-26T15:27:46.594Z,15
2019-03-26T15:28:18.596Z,15
2019-03-26T15:28:50.577Z,20
2019-03-26T15:29:22.542Z,20
2019-03-26T15:29:54.540Z,20
2019-03-26T15:30:26.561Z,25
2019-03-26T15:30:58.552Z,25
2019-03-26T15:31:30.542Z,25
2019-03-26T15:32:02.506Z,30
2019-03-26T15:32:34.501Z,30
2019-03-26T15:33:06.523Z,30
2019-03-26T15:33:38.505Z,35
2019-03-26T15:34:10.501Z,35
2019-03-26T15:34:42.468Z,35
2019-03-26T15:35:14.464Z,35
2019-03-26T15:35:46.462Z,35
2019-03-26T15:36:18.448Z,35
2019-03-26T15:36:50.445Z,35
2019-03-26T15:37:22.464Z,35
2019-03-26T15:37:54.490Z,40
2019-03-26T15:38:26.471Z,40
2019-03-26T15:38:58.464Z,40
2019-03-26T15:39:30.439Z,40
2019-03-26T15:40:02.449Z,40
2019-03-26T15:40:34.435Z,40
2019-03-26T15:41:06.461Z,40
2019-03-26T15:41:38.474Z,35
2019-03-26T15:42:10.465Z,35
2019-03-26T15:42:42.466Z,35
2019-03-26T15:43:14.540Z,35
2019-03-26T15:43:46.536Z,35
2019-03-26T15:44:18.531Z,35
2019-03-26T15:44:50.512Z,35
2019-03-26T15:45:22.575Z,35
2019-03-26T15:45:54.546Z,30
2019-03-26T15:46:26.541Z,30
2019-03-26T15:46:58.530Z,30
2019-03-26T15:47:30.521Z,30
2019-03-26T15:48:03.160Z,30
2019-03-26T15:48:35.123Z,25
2019-03-26T15:49:07.155Z,25
2019-03-26T15:49:39.146Z,25
2019-03-26T15:50:11.150Z,25
2019-03-26T15:50:43.118Z,25
2019-03-26T15:51:15.124Z,25
2019-03-26T15:51:47.128Z,25
2019-03-26T15:52:19.097Z,25
2019-03-26T15:52:51.083Z,25
2019-03-26T15:53:23.093Z,25
2019-03-26T15:53:55.106Z,25
2019-03-26T15:54:27.111Z,20
2019-03-26T15:54:59.100Z,20
2019-03-26T15:55:31.079Z,20
2019-03-26T15:56:03.077Z,20
2019-03-26T15:56:35.050Z,20
2019-03-26T15:57:07.041Z,20
2019-03-26T15:57:39.017Z,20
2019-03-26T15:58:11.008Z,20
2019-03-26T15:58:42.990Z,20
2019-03-26T15:59:14.984Z,20
2019-03-26T15:59:46.951Z,20
2019-03-26T16:00:18.943Z,25
2019-03-26T16:00:50.986Z,25
2019-03-26T16:01:26.136Z,25
2019-03-26T16:01:58.219Z,25
2019-03-26T16:02:30.215Z,25
2019-03-26T16:03:02.200Z,25
2019-03-26T16:03:34.169Z,25
2019-03-26T16:04:06.181Z,25
2019-03-26T16:04:38.164Z,25
2019-03-26T16:05:10.165Z,25
2019-03-26T16:05:42.229Z,25
2019-03-26T16:06:14.202Z,25
2019-03-26T16:06:46.274Z,25
2019-03-26T16:07:18.249Z,25
2019-03-26T16:07:50.248Z,25
2019-03-26T16:08:22.843Z,30
2019-03-26T16:08:54.828Z,30
2019-03-26T16:09:26.853Z,30
2019-03-26T16:09:58.850Z,25
2019-03-26T16:10:30.826Z,25
2019-03-26T16:11:02.793Z,25
2019-03-26T16:11:37.717Z,25
2019-03-26T16:12:09.740Z,25
2019-03-26T16:12:42.970Z,25
2019-03-26T16:13:14.963Z,25
2019-03-26T16:13:46.942Z,25
2019-03-26T16:14:18.930Z,25
2019-03-26T16:14:50.902Z,25
2019-03-26T16:15:22.875Z,25
2019-03-26T16:15:54.850Z,20
2019-03-26T16:16:26.904Z,20
2019-03-26T16:16:58.918Z,20
2019-03-26T16:17:30.920Z,25
2019-03-26T16:18:02.918Z,25
2019-03-26T16:18:34.950Z,20
2019-03-26T16:19:06.934Z,20
2019-03-26T16:19:38.921Z,20
2019-03-26T16:20:10.951Z,20
2019-03-26T16:20:42.937Z,20
2019-03-26T16:21:14.926Z,20
2019-03-26T16:21:47.534Z,20
2019-03-26T16:22:19.672Z,20
2019-03-26T16:22:51.651Z,25
2019-03-26T16:23:23.626Z,25
2019-03-26T16:23:55.588Z,25
2019-03-26T16:24:27.600Z,25
2019-03-26T16:24:59.577Z,25
2019-03-26T16:25:31.591Z,25
2019-03-26T16:26:03.601Z,25
2019-03-26T16:26:35.574Z,25
2019-03-26T16:27:07.557Z,25
2019-03-26T16:27:39.558Z,25
2019-03-26T16:28:11.547Z,25
2019-03-26T16:28:43.510Z,25
2019-03-26T16:29:15.487Z,30
2019-03-26T16:29:47.483Z,30
2019-03-26T16:30:19.487Z,35
2019-03-26T16:30:51.604Z,35
2019-03-26T16:31:23.604Z,40
2019-03-26T16:31:55.604Z,40
2019-03-26T16:32:27.608Z,45
2019-03-26T16:32:59.587Z,45
2019-03-26T16:33:31.581Z,45
2019-03-26T16:34:03.580Z,50
2019-03-26T16:34:35.578Z,50
2019-03-26T16:35:07.589Z,50
2019-03-26T16:35:41.993Z,50
2019-03-26T16:36:13.975Z,50
2019-03-26T16:37:00.948Z,45
2019-03-26T16:37:32.932Z,45
2019-03-26T16:38:04.910Z,45
2019-03-26T16:38:36.894Z,50
2019-03-26T16:39:08.887Z,50
2019-03-26T16:39:40.960Z,50
2019-03-26T16:40:12.942Z,50
2019-03-26T16:40:44.914Z,45
2019-03-26T16:41:16.933Z,40
2019-03-26T16:41:50.996Z,40
2019-03-26T16:42:22.984Z,35
2019-03-26T16:42:54.965Z,35
2019-03-26T16:43:26.955Z,30
2019-03-26T16:43:58.954Z,30
2019-03-26T16:44:30.977Z,30
2019-03-26T16:45:02.986Z,35
2019-03-26T16:45:34.992Z,30
2019-03-26T16:46:06.988Z,30
2019-03-26T16:46:38.970Z,30